Portada
METAR-TAF:

METAR-TAF

Aeropuertos :

Nuevo Aeropuerto Internacional de Islamabad

Islamabad, Pakistán

latitud: 33-32-57N, longitud: 072-49-32E, altitud: 537 m

Observación

El informe se hizo hace 26 minutos, a las 04:55 UTC
Viento 10 kt del oeste-noroeste
Temperatura 22°C
Humedad 46%
Presión 1016 hPa
Visibilidad: 6000 m

METAR: OPIS 080455Z 29010KT 6000 NSC 22/10 Q1016 NOSIG

Hora: 10:21 (05:21 UTC)

Pronóstico

El informe se hizo hace 7 horas y 51 minutos, a las 21:30 UTC
Pronóstico válido del 08 a las 00 UTC al 09 a las 06 UTC
Viento 15 kt del oeste-suroeste con ráfagas de 25 kt
Visibilidad: 8000 m
Escasas nubes a una altura de 4000 ft

TAF: OPIS 072130Z 0800/0906 30010KT 6000 FEW040 SC100TEMPO 0806/0811 24015G25KT 8000

Observaciones y pronósticos meteorológicos de más de 4000 aeropuertos (mensajes METAR y TAF).

Los puntos amarillos y rojos representan las estaciones disponibles.

Ponga el ratón en el punto deseado para ver el nombre de la estación.

Haga clic para ver las observaciones y los pronósticos meteorológicos.

Para cambiar el mapa : haga clic en los botones verdes con una cruz de color negro para hacer un zoom, en el botón verde con un guión para alejar o en las flechas verdes para mapas adyacentes.


METAR-TAF: